sensor_id;sensor_type;location;lat;lon;timestamp;P1;durP1;ratioP1;P2;durP2;ratioP2
37645;SDS011;23489;49.600;6.138;2024-01-25T00:00:41;22.27;;;4.72;;
37645;SDS011;23489;49.600;6.138;2024-01-25T00:03:06;21.15;;;4.22;;
37645;SDS011;23489;49.600;6.138;2024-01-25T00:05:32;27.45;;;4.60;;
37645;SDS011;23489;49.600;6.138;2024-01-25T00:07:58;20.95;;;4.25;;
37645;SDS011;23489;49.600;6.138;2024-01-25T00:10:23;23.48;;;5.10;;
37645;SDS011;23489;49.600;6.138;2024-01-25T00:12:49;17.20;;;4.05;;
37645;SDS011;23489;49.600;6.138;2024-01-25T00:15:15;15.15;;;3.67;;
37645;SDS011;23489;49.600;6.138;2024-01-25T00:17:41;24.02;;;4.65;;
37645;SDS011;23489;49.600;6.138;2024-01-25T00:20:08;22.63;;;4.32;;
37645;SDS011;23489;49.600;6.138;2024-01-25T00:22:35;22.38;;;4.32;;
37645;SDS011;23489;49.600;6.138;2024-01-25T00:25:02;19.13;;;4.35;;
37645;SDS011;23489;49.600;6.138;2024-01-25T00:27:27;30.13;;;4.85;;
37645;SDS011;23489;49.600;6.138;2024-01-25T00:39:36;24.52;;;5.30;;
37645;SDS011;23489;49.600;6.138;2024-01-25T00:42:03;18.50;;;4.82;;
37645;SDS011;23489;49.600;6.138;2024-01-25T00:46:56;23.13;;;4.88;;
37645;SDS011;23489;49.600;6.138;2024-01-25T00:49:24;28.23;;;5.07;;
37645;SDS011;23489;49.600;6.138;2024-01-25T01:04:09;19.48;;;4.03;;
37645;SDS011;23489;49.600;6.138;2024-01-25T01:06:35;21.63;;;4.53;;
37645;SDS011;23489;49.600;6.138;2024-01-25T01:09:01;25.88;;;4.38;;
37645;SDS011;23489;49.600;6.138;2024-01-25T01:13:52;24.63;;;5.85;;
37645;SDS011;23489;49.600;6.138;2024-01-25T01:16:18;25.83;;;4.88;;
37645;SDS011;23489;49.600;6.138;2024-01-25T01:18:45;25.10;;;4.95;;
37645;SDS011;23489;49.600;6.138;2024-01-25T01:21:11;20.63;;;3.85;;
37645;SDS011;23489;49.600;6.138;2024-01-25T01:23:37;24.10;;;5.05;;
37645;SDS011;23489;49.600;6.138;2024-01-25T01:26:03;20.77;;;4.55;;
37645;SDS011;23489;49.600;6.138;2024-01-25T01:28:29;22.60;;;4.35;;
37645;SDS011;23489;49.600;6.138;2024-01-25T01:30:55;21.67;;;4.53;;
37645;SDS011;23489;49.600;6.138;2024-01-25T01:33:20;19.25;;;4.70;;
37645;SDS011;23489;49.600;6.138;2024-01-25T01:35:46;21.58;;;3.90;;
37645;SDS011;23489;49.600;6.138;2024-01-25T01:38:11;22.48;;;4.80;;
37645;SDS011;23489;49.600;6.138;2024-01-25T01:40:37;23.98;;;4.20;;
37645;SDS011;23489;49.600;6.138;2024-01-25T01:43:03;21.35;;;4.22;;
37645;SDS011;23489;49.600;6.138;2024-01-25T01:45:29;21.70;;;4.43;;
37645;SDS011;23489;49.600;6.138;2024-01-25T01:47:54;27.92;;;4.45;;
37645;SDS011;23489;49.600;6.138;2024-01-25T01:50:21;26.45;;;4.03;;
37645;SDS011;23489;49.600;6.138;2024-01-25T01:52:47;18.88;;;4.30;;
37645;SDS011;23489;49.600;6.138;2024-01-25T01:55:15;23.60;;;4.53;;
37645;SDS011;23489;49.600;6.138;2024-01-25T01:57:41;18.42;;;4.35;;
37645;SDS011;23489;49.600;6.138;2024-01-25T02:00:08;19.65;;;4.13;;
37645;SDS011;23489;49.600;6.138;2024-01-25T02:02:37;18.92;;;4.47;;
37645;SDS011;23489;49.600;6.138;2024-01-25T02:05:03;14.30;;;4.13;;
37645;SDS011;23489;49.600;6.138;2024-01-25T02:07:30;22.35;;;5.15;;
37645;SDS011;23489;49.600;6.138;2024-01-25T02:09:56;19.63;;;3.70;;
37645;SDS011;23489;49.600;6.138;2024-01-25T02:12:21;25.55;;;4.43;;
37645;SDS011;23489;49.600;6.138;2024-01-25T02:14:47;25.17;;;4.07;;
37645;SDS011;23489;49.600;6.138;2024-01-25T02:17:13;26.27;;;4.65;;
37645;SDS011;23489;49.600;6.138;2024-01-25T02:19:38;14.85;;;4.03;;
37645;SDS011;23489;49.600;6.138;2024-01-25T02:22:04;16.83;;;4.22;;
37645;SDS011;23489;49.600;6.138;2024-01-25T02:24:30;24.90;;;5.35;;
37645;SDS011;23489;49.600;6.138;2024-01-25T02:26:56;19.60;;;3.90;;
37645;SDS011;23489;49.600;6.138;2024-01-25T02:29:22;19.48;;;4.32;;
37645;SDS011;23489;49.600;6.138;2024-01-25T02:31:47;23.00;;;4.28;;
37645;SDS011;23489;49.600;6.138;2024-01-25T02:34:13;25.70;;;4.60;;
37645;SDS011;23489;49.600;6.138;2024-01-25T02:36:39;17.52;;;4.30;;
37645;SDS011;23489;49.600;6.138;2024-01-25T02:39:04;21.13;;;4.22;;
37645;SDS011;23489;49.600;6.138;2024-01-25T02:41:30;17.80;;;4.20;;
37645;SDS011;23489;49.600;6.138;2024-01-25T02:43:56;24.60;;;5.03;;
37645;SDS011;23489;49.600;6.138;2024-01-25T02:46:22;20.58;;;4.18;;
37645;SDS011;23489;49.600;6.138;2024-01-25T02:48:48;26.55;;;6.00;;
37645;SDS011;23489;49.600;6.138;2024-01-25T02:51:14;23.27;;;4.22;;
37645;SDS011;23489;49.600;6.138;2024-01-25T02:53:40;15.73;;;3.83;;
37645;SDS011;23489;49.600;6.138;2024-01-25T02:56:06;24.45;;;4.80;;
37645;SDS011;23489;49.600;6.138;2024-01-25T02:58:32;17.35;;;4.07;;
37645;SDS011;23489;49.600;6.138;2024-01-25T03:00:58;21.90;;;4.38;;
37645;SDS011;23489;49.600;6.138;2024-01-25T03:03:24;19.67;;;4.00;;
37645;SDS011;23489;49.600;6.138;2024-01-25T03:05:51;18.63;;;4.03;;
37645;SDS011;23489;49.600;6.138;2024-01-25T03:08:17;21.80;;;4.22;;
37645;SDS011;23489;49.600;6.138;2024-01-25T03:10:42;25.05;;;3.85;;
37645;SDS011;23489;49.600;6.138;2024-01-25T03:13:08;19.45;;;4.05;;
37645;SDS011;23489;49.600;6.138;2024-01-25T03:15:34;20.25;;;4.22;;
37645;SDS011;23489;49.600;6.138;2024-01-25T03:17:59;13.55;;;3.65;;
37645;SDS011;23489;49.600;6.138;2024-01-25T03:20:25;23.10;;;4.15;;
37645;SDS011;23489;49.600;6.138;2024-01-25T03:22:51;24.25;;;5.07;;
37645;SDS011;23489;49.600;6.138;2024-01-25T03:25:16;22.95;;;4.30;;
37645;SDS011;23489;49.600;6.138;2024-01-25T03:27:42;25.33;;;5.10;;
37645;SDS011;23489;49.600;6.138;2024-01-25T03:30:08;22.50;;;5.22;;
37645;SDS011;23489;49.600;6.138;2024-01-25T03:32:34;24.08;;;5.40;;
37645;SDS011;23489;49.600;6.138;2024-01-25T03:35:00;25.23;;;5.78;;
37645;SDS011;23489;49.600;6.138;2024-01-25T03:37:26;24.07;;;5.07;;
37645;SDS011;23489;49.600;6.138;2024-01-25T03:39:51;24.38;;;5.00;;
37645;SDS011;23489;49.600;6.138;2024-01-25T03:42:17;25.97;;;4.70;;
37645;SDS011;23489;49.600;6.138;2024-01-25T03:44:43;26.65;;;5.25;;
37645;SDS011;23489;49.600;6.138;2024-01-25T03:47:10;27.58;;;5.60;;
37645;SDS011;23489;49.600;6.138;2024-01-25T03:49:36;26.20;;;5.10;;
37645;SDS011;23489;49.600;6.138;2024-01-25T03:52:01;28.07;;;6.03;;
37645;SDS011;23489;49.600;6.138;2024-01-25T03:54:28;26.55;;;5.60;;
37645;SDS011;23489;49.600;6.138;2024-01-25T03:56:53;28.13;;;6.20;;
37645;SDS011;23489;49.600;6.138;2024-01-25T03:59:19;30.57;;;5.63;;
37645;SDS011;23489;49.600;6.138;2024-01-25T04:01:45;24.73;;;5.18;;
37645;SDS011;23489;49.600;6.138;2024-01-25T04:04:12;22.37;;;5.07;;
37645;SDS011;23489;49.600;6.138;2024-01-25T04:06:40;25.60;;;4.97;;
37645;SDS011;23489;49.600;6.138;2024-01-25T04:09:11;25.42;;;6.13;;
37645;SDS011;23489;49.600;6.138;2024-01-25T04:11:37;29.10;;;5.43;;
37645;SDS011;23489;49.600;6.138;2024-01-25T04:14:03;24.58;;;3.90;;
37645;SDS011;23489;49.600;6.138;2024-01-25T04:16:29;16.52;;;4.00;;
37645;SDS011;23489;49.600;6.138;2024-01-25T04:18:55;18.55;;;4.20;;
37645;SDS011;23489;49.600;6.138;2024-01-25T04:21:21;25.25;;;4.78;;
37645;SDS011;23489;49.600;6.138;2024-01-25T04:23:47;25.30;;;4.47;;
37645;SDS011;23489;49.600;6.138;2024-01-25T04:26:15;16.83;;;4.88;;
37645;SDS011;23489;49.600;6.138;2024-01-25T04:31:07;21.98;;;4.05;;
37645;SDS011;23489;49.600;6.138;2024-01-25T04:33:33;23.67;;;5.07;;
37645;SDS011;23489;49.600;6.138;2024-01-25T04:35:59;23.65;;;4.00;;
37645;SDS011;23489;49.600;6.138;2024-01-25T04:38:24;26.48;;;4.13;;
37645;SDS011;23489;49.600;6.138;2024-01-25T04:40:50;22.60;;;4.13;;
37645;SDS011;23489;49.600;6.138;2024-01-25T04:43:16;25.75;;;4.30;;
37645;SDS011;23489;49.600;6.138;2024-01-25T04:45:41;23.20;;;4.18;;
37645;SDS011;23489;49.600;6.138;2024-01-25T05:44:01;30.05;;;5.97;;
37645;SDS011;23489;49.600;6.138;2024-01-25T05:46:26;25.95;;;5.28;;
37645;SDS011;23489;49.600;6.138;2024-01-25T05:48:52;23.55;;;4.85;;
37645;SDS011;23489;49.600;6.138;2024-01-25T05:51:18;33.72;;;6.03;;
37645;SDS011;23489;49.600;6.138;2024-01-25T05:53:43;19.15;;;4.43;;
37645;SDS011;23489;49.600;6.138;2024-01-25T05:56:09;26.40;;;4.88;;
37645;SDS011;23489;49.600;6.138;2024-01-25T05:58:35;21.38;;;5.32;;
37645;SDS011;23489;49.600;6.138;2024-01-25T06:01:00;29.50;;;6.60;;
37645;SDS011;23489;49.600;6.138;2024-01-25T06:03:27;30.35;;;6.57;;
37645;SDS011;23489;49.600;6.138;2024-01-25T06:05:53;29.65;;;5.95;;
37645;SDS011;23489;49.600;6.138;2024-01-25T06:08:18;36.42;;;6.65;;
37645;SDS011;23489;49.600;6.138;2024-01-25T06:10:44;19.63;;;4.85;;
37645;SDS011;23489;49.600;6.138;2024-01-25T06:13:10;33.08;;;6.20;;
37645;SDS011;23489;49.600;6.138;2024-01-25T06:15:35;27.92;;;6.22;;
37645;SDS011;23489;49.600;6.138;2024-01-25T06:18:01;20.65;;;6.25;;
37645;SDS011;23489;49.600;6.138;2024-01-25T06:20:28;25.08;;;4.95;;
37645;SDS011;23489;49.600;6.138;2024-01-25T06:22:53;31.90;;;6.22;;
37645;SDS011;23489;49.600;6.138;2024-01-25T06:25:19;32.13;;;7.15;;
37645;SDS011;23489;49.600;6.138;2024-01-25T06:27:44;22.40;;;6.53;;
37645;SDS011;23489;49.600;6.138;2024-01-25T06:30:10;23.08;;;4.90;;
37645;SDS011;23489;49.600;6.138;2024-01-25T06:32:36;19.83;;;4.75;;
37645;SDS011;23489;49.600;6.138;2024-01-25T06:35:02;32.38;;;5.68;;
37645;SDS011;23489;49.600;6.138;2024-01-25T06:37:29;31.20;;;5.80;;
37645;SDS011;23489;49.600;6.138;2024-01-25T06:39:55;25.55;;;5.40;;
37645;SDS011;23489;49.600;6.138;2024-01-25T06:42:20;26.48;;;6.03;;
37645;SDS011;23489;49.600;6.138;2024-01-25T06:44:47;26.27;;;4.95;;
37645;SDS011;23489;49.600;6.138;2024-01-25T06:47:12;31.02;;;5.28;;
37645;SDS011;23489;49.600;6.138;2024-01-25T06:49:38;31.75;;;6.72;;
37645;SDS011;23489;49.600;6.138;2024-01-25T06:52:04;32.45;;;5.57;;
37645;SDS011;23489;49.600;6.138;2024-01-25T06:54:30;33.17;;;6.40;;
37645;SDS011;23489;49.600;6.138;2024-01-25T06:56:56;35.88;;;5.25;;
37645;SDS011;23489;49.600;6.138;2024-01-25T06:59:22;34.13;;;7.20;;
37645;SDS011;23489;49.600;6.138;2024-01-25T07:01:48;27.95;;;5.90;;
37645;SDS011;23489;49.600;6.138;2024-01-25T07:04:14;32.60;;;6.50;;
37645;SDS011;23489;49.600;6.138;2024-01-25T07:06:40;28.25;;;6.28;;
37645;SDS011;23489;49.600;6.138;2024-01-25T07:09:06;36.40;;;6.18;;
37645;SDS011;23489;49.600;6.138;2024-01-25T07:11:31;29.75;;;5.63;;
37645;SDS011;23489;49.600;6.138;2024-01-25T07:13:57;25.98;;;5.78;;
37645;SDS011;23489;49.600;6.138;2024-01-25T07:16:23;31.48;;;7.70;;
37645;SDS011;23489;49.600;6.138;2024-01-25T07:18:49;25.20;;;5.82;;
37645;SDS011;23489;49.600;6.138;2024-01-25T07:21:14;31.85;;;6.15;;
37645;SDS011;23489;49.600;6.138;2024-01-25T07:23:40;30.67;;;6.15;;
37645;SDS011;23489;49.600;6.138;2024-01-25T07:26:06;22.70;;;5.32;;
37645;SDS011;23489;49.600;6.138;2024-01-25T07:28:31;27.88;;;6.55;;
37645;SDS011;23489;49.600;6.138;2024-01-25T07:30:57;36.58;;;9.63;;
37645;SDS011;23489;49.600;6.138;2024-01-25T07:33:23;36.80;;;8.32;;
37645;SDS011;23489;49.600;6.138;2024-01-25T07:35:48;34.95;;;7.70;;
37645;SDS011;23489;49.600;6.138;2024-01-25T07:38:14;29.67;;;6.32;;
37645;SDS011;23489;49.600;6.138;2024-01-25T07:40:40;27.92;;;5.57;;
37645;SDS011;23489;49.600;6.138;2024-01-25T07:43:06;27.15;;;5.80;;
37645;SDS011;23489;49.600;6.138;2024-01-25T07:45:32;21.13;;;6.15;;
37645;SDS011;23489;49.600;6.138;2024-01-25T07:47:58;20.60;;;4.78;;
37645;SDS011;23489;49.600;6.138;2024-01-25T07:50:24;27.60;;;5.50;;
37645;SDS011;23489;49.600;6.138;2024-01-25T07:52:50;25.45;;;5.28;;
37645;SDS011;23489;49.600;6.138;2024-01-25T07:55:16;27.92;;;5.28;;
37645;SDS011;23489;49.600;6.138;2024-01-25T07:57:41;24.08;;;5.45;;
37645;SDS011;23489;49.600;6.138;2024-01-25T08:00:07;25.25;;;5.05;;
37645;SDS011;23489;49.600;6.138;2024-01-25T08:02:34;17.58;;;4.78;;
37645;SDS011;23489;49.600;6.138;2024-01-25T08:05:06;26.67;;;7.18;;
37645;SDS011;23489;49.600;6.138;2024-01-25T08:07:32;28.13;;;6.70;;
37645;SDS011;23489;49.600;6.138;2024-01-25T08:09:58;31.63;;;6.22;;
37645;SDS011;23489;49.600;6.138;2024-01-25T08:12:24;26.38;;;5.22;;
37645;SDS011;23489;49.600;6.138;2024-01-25T08:14:50;30.83;;;5.90;;
37645;SDS011;23489;49.600;6.138;2024-01-25T08:17:16;22.17;;;5.70;;
37645;SDS011;23489;49.600;6.138;2024-01-25T08:19:41;29.30;;;5.45;;
37645;SDS011;23489;49.600;6.138;2024-01-25T08:22:07;27.45;;;4.32;;
37645;SDS011;23489;49.600;6.138;2024-01-25T08:24:34;25.92;;;5.40;;
37645;SDS011;23489;49.600;6.138;2024-01-25T08:26:59;17.48;;;4.90;;
37645;SDS011;23489;49.600;6.138;2024-01-25T08:29:25;25.80;;;5.20;;
37645;SDS011;23489;49.600;6.138;2024-01-25T08:31:50;27.20;;;6.00;;
37645;SDS011;23489;49.600;6.138;2024-01-25T08:34:16;25.30;;;6.38;;
37645;SDS011;23489;49.600;6.138;2024-01-25T08:36:41;24.67;;;4.78;;
37645;SDS011;23489;49.600;6.138;2024-01-25T08:39:07;21.45;;;5.22;;
37645;SDS011;23489;49.600;6.138;2024-01-25T08:41:34;22.52;;;5.25;;
37645;SDS011;23489;49.600;6.138;2024-01-25T08:44:00;27.23;;;5.13;;
37645;SDS011;23489;49.600;6.138;2024-01-25T08:46:25;27.77;;;6.20;;
37645;SDS011;23489;49.600;6.138;2024-01-25T08:48:51;29.60;;;5.45;;
37645;SDS011;23489;49.600;6.138;2024-01-25T08:51:17;25.27;;;5.50;;
37645;SDS011;23489;49.600;6.138;2024-01-25T08:53:43;18.98;;;5.20;;
37645;SDS011;23489;49.600;6.138;2024-01-25T08:56:08;17.98;;;4.93;;
37645;SDS011;23489;49.600;6.138;2024-01-25T08:58:34;26.10;;;5.32;;
37645;SDS011;23489;49.600;6.138;2024-01-25T09:01:00;25.48;;;6.07;;
37645;SDS011;23489;49.600;6.138;2024-01-25T09:03:26;21.40;;;5.63;;
37645;SDS011;23489;49.600;6.138;2024-01-25T09:05:51;19.38;;;5.00;;
37645;SDS011;23489;49.600;6.138;2024-01-25T09:08:17;17.90;;;5.03;;
37645;SDS011;23489;49.600;6.138;2024-01-25T09:10:43;23.17;;;5.90;;
37645;SDS011;23489;49.600;6.138;2024-01-25T09:13:09;22.42;;;5.95;;
37645;SDS011;23489;49.600;6.138;2024-01-25T09:15:35;30.02;;;6.03;;
37645;SDS011;23489;49.600;6.138;2024-01-25T09:18:01;27.38;;;5.72;;
37645;SDS011;23489;49.600;6.138;2024-01-25T09:20:26;24.58;;;5.50;;
37645;SDS011;23489;49.600;6.138;2024-01-25T09:22:52;28.52;;;6.38;;
37645;SDS011;23489;49.600;6.138;2024-01-25T09:25:20;24.15;;;5.90;;
37645;SDS011;23489;49.600;6.138;2024-01-25T09:27:46;29.75;;;6.55;;
37645;SDS011;23489;49.600;6.138;2024-01-25T09:30:12;36.30;;;6.82;;
37645;SDS011;23489;49.600;6.138;2024-01-25T09:32:38;23.42;;;5.47;;
37645;SDS011;23489;49.600;6.138;2024-01-25T09:35:04;24.65;;;6.13;;
37645;SDS011;23489;49.600;6.138;2024-01-25T09:37:30;22.13;;;6.45;;
37645;SDS011;23489;49.600;6.138;2024-01-25T09:39:56;24.98;;;6.25;;
37645;SDS011;23489;49.600;6.138;2024-01-25T09:42:24;25.95;;;7.28;;
37645;SDS011;23489;49.600;6.138;2024-01-25T09:44:49;21.75;;;6.43;;
37645;SDS011;23489;49.600;6.138;2024-01-25T09:47:19;28.13;;;7.38;;
37645;SDS011;23489;49.600;6.138;2024-01-25T09:49:46;40.25;;;7.90;;
37645;SDS011;23489;49.600;6.138;2024-01-25T09:52:12;22.35;;;5.93;;
37645;SDS011;23489;49.600;6.138;2024-01-25T09:54:38;31.33;;;7.38;;
37645;SDS011;23489;49.600;6.138;2024-01-25T09:57:14;30.38;;;8.30;;
37645;SDS011;23489;49.600;6.138;2024-01-25T09:59:44;23.50;;;5.72;;
37645;SDS011;23489;49.600;6.138;2024-01-25T10:02:10;18.90;;;5.65;;
37645;SDS011;23489;49.600;6.138;2024-01-25T10:04:36;22.10;;;5.78;;
37645;SDS011;23489;49.600;6.138;2024-01-25T10:07:02;25.23;;;5.45;;
37645;SDS011;23489;49.600;6.138;2024-01-25T10:09:28;25.42;;;5.55;;
37645;SDS011;23489;49.600;6.138;2024-01-25T10:12:02;22.20;;;6.00;;
37645;SDS011;23489;49.600;6.138;2024-01-25T10:14:28;21.90;;;4.45;;
37645;SDS011;23489;49.600;6.138;2024-01-25T10:16:54;16.05;;;5.32;;
37645;SDS011;23489;49.600;6.138;2024-01-25T10:19:20;24.02;;;5.35;;
37645;SDS011;23489;49.600;6.138;2024-01-25T10:21:45;22.48;;;5.47;;
37645;SDS011;23489;49.600;6.138;2024-01-25T10:24:11;19.50;;;5.43;;
37645;SDS011;23489;49.600;6.138;2024-01-25T10:26:38;20.52;;;5.18;;
37645;SDS011;23489;49.600;6.138;2024-01-25T10:29:05;22.83;;;5.47;;
37645;SDS011;23489;49.600;6.138;2024-01-25T10:31:32;22.50;;;5.68;;
37645;SDS011;23489;49.600;6.138;2024-01-25T10:34:05;20.95;;;4.90;;
37645;SDS011;23489;49.600;6.138;2024-01-25T10:36:36;22.52;;;6.35;;
37645;SDS011;23489;49.600;6.138;2024-01-25T10:39:03;21.40;;;5.97;;
37645;SDS011;23489;49.600;6.138;2024-01-25T10:41:32;20.98;;;6.13;;
37645;SDS011;23489;49.600;6.138;2024-01-25T10:43:59;24.23;;;5.97;;
37645;SDS011;23489;49.600;6.138;2024-01-25T10:46:26;26.02;;;5.85;;
37645;SDS011;23489;49.600;6.138;2024-01-25T10:48:52;20.92;;;5.53;;
37645;SDS011;23489;49.600;6.138;2024-01-25T10:51:22;15.85;;;5.35;;
37645;SDS011;23489;49.600;6.138;2024-01-25T10:53:48;25.90;;;5.47;;
37645;SDS011;23489;49.600;6.138;2024-01-25T10:56:14;17.05;;;5.20;;
37645;SDS011;23489;49.600;6.138;2024-01-25T10:58:40;16.77;;;4.78;;
37645;SDS011;23489;49.600;6.138;2024-01-25T11:01:10;19.70;;;4.90;;
37645;SDS011;23489;49.600;6.138;2024-01-25T11:03:36;21.45;;;5.13;;
37645;SDS011;23489;49.600;6.138;2024-01-25T11:06:08;19.98;;;5.25;;
37645;SDS011;23489;49.600;6.138;2024-01-25T11:08:37;19.33;;;4.75;;
37645;SDS011;23489;49.600;6.138;2024-01-25T11:11:07;20.77;;;5.70;;
37645;SDS011;23489;49.600;6.138;2024-01-25T11:13:38;23.90;;;5.78;;
37645;SDS011;23489;49.600;6.138;2024-01-25T11:16:11;24.10;;;6.40;;
37645;SDS011;23489;49.600;6.138;2024-01-25T11:18:54;26.60;;;5.20;;
37645;SDS011;23489;49.600;6.138;2024-01-25T11:21:39;27.70;;;5.68;;
37645;SDS011;23489;49.600;6.138;2024-01-25T11:24:17;21.25;;;5.10;;
37645;SDS011;23489;49.600;6.138;2024-01-25T11:26:46;18.25;;;5.32;;
37645;SDS011;23489;49.600;6.138;2024-01-25T11:29:13;22.55;;;5.22;;
37645;SDS011;23489;49.600;6.138;2024-01-25T11:31:44;21.70;;;6.10;;
37645;SDS011;23489;49.600;6.138;2024-01-25T11:34:11;18.83;;;5.82;;
37645;SDS011;23489;49.600;6.138;2024-01-25T11:36:38;21.48;;;5.15;;
37645;SDS011;23489;49.600;6.138;2024-01-25T11:39:04;25.95;;;5.25;;
37645;SDS011;23489;49.600;6.138;2024-01-25T11:41:31;23.42;;;4.80;;
37645;SDS011;23489;49.600;6.138;2024-01-25T11:43:57;18.25;;;4.78;;
37645;SDS011;23489;49.600;6.138;2024-01-25T11:46:23;31.00;;;6.35;;
37645;SDS011;23489;49.600;6.138;2024-01-25T11:48:49;20.13;;;5.95;;
37645;SDS011;23489;49.600;6.138;2024-01-25T11:51:15;22.58;;;8.30;;
37645;SDS011;23489;49.600;6.138;2024-01-25T11:53:41;17.05;;;7.38;;
37645;SDS011;23489;49.600;6.138;2024-01-25T11:56:09;22.45;;;6.95;;
37645;SDS011;23489;49.600;6.138;2024-01-25T11:58:38;19.08;;;5.40;;
37645;SDS011;23489;49.600;6.138;2024-01-25T12:01:05;10.02;;;3.85;;
37645;SDS011;23489;49.600;6.138;2024-01-25T12:03:33;11.13;;;3.78;;
37645;SDS011;23489;49.600;6.138;2024-01-25T12:06:00;17.75;;;3.97;;
37645;SDS011;23489;49.600;6.138;2024-01-25T12:08:27;17.60;;;4.30;;
37645;SDS011;23489;49.600;6.138;2024-01-25T12:11:02;17.58;;;4.45;;
37645;SDS011;23489;49.600;6.138;2024-01-25T12:13:31;14.43;;;4.05;;
37645;SDS011;23489;49.600;6.138;2024-01-25T12:15:57;15.15;;;4.10;;
37645;SDS011;23489;49.600;6.138;2024-01-25T12:18:23;10.82;;;3.70;;
37645;SDS011;23489;49.600;6.138;2024-01-25T12:20:50;17.70;;;4.88;;
37645;SDS011;23489;49.600;6.138;2024-01-25T12:23:15;12.02;;;4.07;;
37645;SDS011;23489;49.600;6.138;2024-01-25T12:25:41;13.93;;;3.65;;
37645;SDS011;23489;49.600;6.138;2024-01-25T12:28:06;9.02;;;3.63;;
37645;SDS011;23489;49.600;6.138;2024-01-25T12:30:32;14.68;;;3.15;;
37645;SDS011;23489;49.600;6.138;2024-01-25T12:32:58;9.73;;;3.40;;
37645;SDS011;23489;49.600;6.138;2024-01-25T12:35:23;12.40;;;4.10;;
37645;SDS011;23489;49.600;6.138;2024-01-25T12:37:49;12.82;;;3.92;;
37645;SDS011;23489;49.600;6.138;2024-01-25T12:40:15;9.18;;;3.15;;
37645;SDS011;23489;49.600;6.138;2024-01-25T12:42:40;10.77;;;3.58;;
37645;SDS011;23489;49.600;6.138;2024-01-25T12:45:06;11.57;;;3.53;;
37645;SDS011;23489;49.600;6.138;2024-01-25T12:47:32;12.65;;;3.63;;
37645;SDS011;23489;49.600;6.138;2024-01-25T12:49:57;12.90;;;3.10;;
37645;SDS011;23489;49.600;6.138;2024-01-25T12:52:23;7.80;;;2.95;;
37645;SDS011;23489;49.600;6.138;2024-01-25T12:54:49;13.32;;;3.78;;
37645;SDS011;23489;49.600;6.138;2024-01-25T12:57:14;10.93;;;2.65;;
37645;SDS011;23489;49.600;6.138;2024-01-25T12:59:40;6.53;;;2.90;;
37645;SDS011;23489;49.600;6.138;2024-01-25T13:02:06;11.68;;;3.28;;
37645;SDS011;23489;49.600;6.138;2024-01-25T13:04:33;9.07;;;3.17;;
37645;SDS011;23489;49.600;6.138;2024-01-25T13:06:58;13.55;;;3.17;;
37645;SDS011;23489;49.600;6.138;2024-01-25T13:09:24;9.52;;;3.20;;
37645;SDS011;23489;49.600;6.138;2024-01-25T13:11:49;12.57;;;3.50;;
37645;SDS011;23489;49.600;6.138;2024-01-25T13:14:17;13.63;;;3.20;;
37645;SDS011;23489;49.600;6.138;2024-01-25T13:16:43;11.52;;;3.00;;
37645;SDS011;23489;49.600;6.138;2024-01-25T13:19:08;12.25;;;2.95;;
37645;SDS011;23489;49.600;6.138;2024-01-25T13:21:36;9.55;;;2.95;;
37645;SDS011;23489;49.600;6.138;2024-01-25T13:24:02;10.05;;;3.03;;
37645;SDS011;23489;49.600;6.138;2024-01-25T13:26:28;11.20;;;2.83;;
37645;SDS011;23489;49.600;6.138;2024-01-25T13:28:53;14.57;;;3.25;;
37645;SDS011;23489;49.600;6.138;2024-01-25T13:31:19;11.48;;;2.95;;
37645;SDS011;23489;49.600;6.138;2024-01-25T13:33:45;8.82;;;2.75;;
37645;SDS011;23489;49.600;6.138;2024-01-25T13:36:12;11.45;;;2.50;;
37645;SDS011;23489;49.600;6.138;2024-01-25T13:38:39;7.43;;;2.38;;
37645;SDS011;23489;49.600;6.138;2024-01-25T13:41:05;12.13;;;2.75;;
37645;SDS011;23489;49.600;6.138;2024-01-25T13:43:31;6.68;;;2.67;;
37645;SDS011;23489;49.600;6.138;2024-01-25T13:45:57;9.30;;;2.50;;
37645;SDS011;23489;49.600;6.138;2024-01-25T13:48:22;10.55;;;2.53;;
37645;SDS011;23489;49.600;6.138;2024-01-25T13:50:48;8.57;;;2.58;;
37645;SDS011;23489;49.600;6.138;2024-01-25T13:53:14;8.15;;;2.50;;
37645;SDS011;23489;49.600;6.138;2024-01-25T13:55:39;6.03;;;2.63;;
37645;SDS011;23489;49.600;6.138;2024-01-25T13:58:05;5.03;;;1.95;;
37645;SDS011;23489;49.600;6.138;2024-01-25T14:00:31;7.53;;;2.13;;
37645;SDS011;23489;49.600;6.138;2024-01-25T14:02:56;7.70;;;1.80;;
37645;SDS011;23489;49.600;6.138;2024-01-25T14:05:22;14.00;;;2.30;;
37645;SDS011;23489;49.600;6.138;2024-01-25T14:07:47;5.30;;;2.05;;
37645;SDS011;23489;49.600;6.138;2024-01-25T14:10:13;9.93;;;2.67;;
37645;SDS011;23489;49.600;6.138;2024-01-25T14:12:39;6.00;;;2.22;;
37645;SDS011;23489;49.600;6.138;2024-01-25T14:15:05;9.85;;;2.30;;
37645;SDS011;23489;49.600;6.138;2024-01-25T14:17:31;7.47;;;2.85;;
37645;SDS011;23489;49.600;6.138;2024-01-25T14:19:56;6.90;;;3.00;;
37645;SDS011;23489;49.600;6.138;2024-01-25T14:22:22;6.40;;;2.58;;
37645;SDS011;23489;49.600;6.138;2024-01-25T14:24:48;4.22;;;2.50;;
37645;SDS011;23489;49.600;6.138;2024-01-25T14:27:13;6.72;;;2.88;;
37645;SDS011;23489;49.600;6.138;2024-01-25T14:29:39;4.30;;;2.58;;
37645;SDS011;23489;49.600;6.138;2024-01-25T14:32:04;5.80;;;2.72;;
37645;SDS011;23489;49.600;6.138;2024-01-25T14:34:30;9.93;;;2.58;;
37645;SDS011;23489;49.600;6.138;2024-01-25T14:36:56;4.80;;;2.47;;
37645;SDS011;23489;49.600;6.138;2024-01-25T14:39:21;7.47;;;2.65;;
37645;SDS011;23489;49.600;6.138;2024-01-25T14:41:47;4.47;;;2.15;;
37645;SDS011;23489;49.600;6.138;2024-01-25T14:44:13;4.68;;;2.17;;
37645;SDS011;23489;49.600;6.138;2024-01-25T14:46:39;8.27;;;2.50;;
37645;SDS011;23489;49.600;6.138;2024-01-25T14:49:05;5.75;;;2.85;;
37645;SDS011;23489;49.600;6.138;2024-01-25T14:51:30;7.80;;;3.17;;
37645;SDS011;23489;49.600;6.138;2024-01-25T14:53:56;4.88;;;2.95;;
37645;SDS011;23489;49.600;6.138;2024-01-25T14:56:22;6.63;;;3.45;;
37645;SDS011;23489;49.600;6.138;2024-01-25T14:58:47;8.73;;;3.75;;
37645;SDS011;23489;49.600;6.138;2024-01-25T15:01:16;6.55;;;2.80;;
37645;SDS011;23489;49.600;6.138;2024-01-25T15:03:44;9.32;;;3.78;;
37645;SDS011;23489;49.600;6.138;2024-01-25T15:06:10;6.82;;;3.40;;
37645;SDS011;23489;49.600;6.138;2024-01-25T15:08:36;8.95;;;3.55;;
37645;SDS011;23489;49.600;6.138;2024-01-25T15:11:02;8.23;;;3.78;;
37645;SDS011;23489;49.600;6.138;2024-01-25T15:13:28;7.28;;;3.22;;
37645;SDS011;23489;49.600;6.138;2024-01-25T15:15:54;8.60;;;3.90;;
37645;SDS011;23489;49.600;6.138;2024-01-25T15:18:19;6.22;;;3.00;;
37645;SDS011;23489;49.600;6.138;2024-01-25T15:20:46;8.45;;;3.60;;
37645;SDS011;23489;49.600;6.138;2024-01-25T15:23:12;7.78;;;2.97;;
37645;SDS011;23489;49.600;6.138;2024-01-25T15:25:37;4.90;;;3.05;;
37645;SDS011;23489;49.600;6.138;2024-01-25T15:28:03;9.05;;;3.95;;
37645;SDS011;23489;49.600;6.138;2024-01-25T15:30:29;7.78;;;3.60;;
37645;SDS011;23489;49.600;6.138;2024-01-25T15:32:55;5.90;;;3.40;;
37645;SDS011;23489;49.600;6.138;2024-01-25T15:35:21;4.47;;;3.03;;
37645;SDS011;23489;49.600;6.138;2024-01-25T15:37:47;9.05;;;3.53;;
37645;SDS011;23489;49.600;6.138;2024-01-25T15:40:13;7.40;;;3.30;;
37645;SDS011;23489;49.600;6.138;2024-01-25T15:42:41;11.63;;;3.75;;
37645;SDS011;23489;49.600;6.138;2024-01-25T15:45:09;6.47;;;3.15;;
37645;SDS011;23489;49.600;6.138;2024-01-25T15:47:35;10.57;;;3.22;;
37645;SDS011;23489;49.600;6.138;2024-01-25T15:50:01;5.63;;;3.70;;
37645;SDS011;23489;49.600;6.138;2024-01-25T15:52:30;9.82;;;3.22;;
37645;SDS011;23489;49.600;6.138;2024-01-25T15:54:57;5.95;;;3.40;;